createdAt,value
2018-12-20T00:01:39.938Z,7.40
2018-12-20T00:04:08.210Z,7.40
2018-12-20T00:06:36.468Z,7.40
2018-12-20T00:09:07.486Z,7.40
2018-12-20T00:11:36.204Z,7.40
2018-12-20T00:14:04.463Z,7.30
2018-12-20T00:16:33.324Z,7.30
2018-12-20T00:19:01.580Z,7.30
2018-12-20T00:21:29.862Z,7.20
2018-12-20T00:23:58.174Z,7.30
2018-12-20T00:26:26.934Z,7.20
2018-12-20T00:28:55.133Z,7.30
2018-12-20T00:31:23.382Z,7.30
2018-12-20T00:33:52.370Z,7.30
2018-12-20T00:36:20.573Z,7.30
2018-12-20T00:38:48.899Z,7.30
2018-12-20T00:41:17.080Z,7.30
2018-12-20T00:43:45.511Z,7.30
2018-12-20T00:46:13.584Z,7.30
2018-12-20T00:48:42.000Z,7.30
2018-12-20T00:51:10.242Z,7.30
2018-12-20T00:53:38.531Z,7.30
2018-12-20T00:56:07.081Z,7.30
2018-12-20T00:58:35.291Z,7.30
2018-12-20T01:01:04.154Z,7.30
2018-12-20T01:03:32.528Z,7.30
2018-12-20T01:06:00.747Z,7.30
2018-12-20T01:08:28.857Z,7.30
2018-12-20T01:10:57.127Z,7.30
2018-12-20T01:13:25.528Z,7.30
2018-12-20T01:15:53.633Z,7.30
2018-12-20T01:18:22.339Z,7.30
2018-12-20T01:20:50.736Z,7.30
2018-12-20T01:23:18.978Z,7.30
2018-12-20T01:25:47.219Z,7.30
2018-12-20T01:28:16.559Z,7.30
2018-12-20T01:30:44.907Z,7.30
2018-12-20T01:33:13.077Z,7.30
2018-12-20T01:35:43.043Z,7.30
2018-12-20T01:38:11.102Z,7.30
2018-12-20T01:40:39.449Z,7.40
2018-12-20T01:43:07.739Z,7.40
2018-12-20T01:45:36.613Z,7.50
2018-12-20T01:48:04.822Z,7.50
2018-12-20T01:50:33.837Z,7.60
2018-12-20T01:53:02.099Z,7.60
2018-12-20T01:55:30.353Z,7.70
2018-12-20T01:57:58.607Z,7.70
2018-12-20T02:00:27.039Z,7.70
2018-12-20T02:02:55.399Z,7.70
2018-12-20T02:05:23.649Z,7.80
2018-12-20T02:07:52.146Z,7.80
2018-12-20T02:10:20.153Z,7.80
2018-12-20T02:12:48.546Z,7.90
2018-12-20T02:15:16.761Z,7.90
2018-12-20T02:17:44.829Z,7.90
2018-12-20T02:20:15.110Z,7.90
2018-12-20T02:22:44.205Z,7.90
2018-12-20T02:25:12.429Z,7.90
2018-12-20T02:27:40.690Z,7.90
2018-12-20T02:30:10.688Z,7.90
2018-12-20T02:32:38.793Z,8.00
2018-12-20T02:35:07.114Z,7.90
2018-12-20T02:37:35.393Z,7.90
2018-12-20T02:40:03.742Z,7.90
2018-12-20T02:42:31.970Z,8.00
2018-12-20T02:45:00.282Z,8.00
2018-12-20T02:47:29.733Z,8.00
2018-12-20T02:49:58.027Z,8.00
2018-12-20T02:52:26.287Z,8.00
2018-12-20T02:54:55.197Z,8.00
2018-12-20T02:57:24.224Z,8.00
2018-12-20T02:59:52.606Z,8.10
2018-12-20T03:02:20.732Z,8.10
2018-12-20T03:04:49.077Z,8.10
2018-12-20T03:07:17.059Z,8.10
2018-12-20T03:09:45.329Z,8.10
2018-12-20T03:12:13.671Z,8.10
2018-12-20T03:14:42.714Z,8.10
2018-12-20T03:17:11.045Z,8.10
2018-12-20T03:19:39.223Z,8.20
2018-12-20T03:22:07.518Z,8.20
2018-12-20T03:24:35.682Z,8.20
2018-12-20T03:27:03.980Z,8.20
2018-12-20T03:29:32.161Z,8.20
2018-12-20T03:32:00.790Z,8.20
2018-12-20T03:34:28.819Z,8.20
2018-12-20T03:36:57.440Z,8.30
2018-12-20T03:39:25.461Z,8.20
2018-12-20T03:41:53.763Z,8.20
2018-12-20T03:44:21.958Z,8.20
2018-12-20T03:46:50.220Z,8.20
2018-12-20T03:49:18.481Z,8.10
2018-12-20T03:51:46.721Z,8.10
2018-12-20T03:54:15.712Z,8.10
2018-12-20T03:56:44.242Z,8.10
2018-12-20T03:59:12.384Z,8.10
2018-12-20T04:01:40.821Z,8.10
2018-12-20T04:04:09.085Z,8.00
2018-12-20T04:06:37.244Z,8.00
2018-12-20T04:09:07.209Z,8.00
2018-12-20T04:11:35.512Z,8.00
2018-12-20T04:14:03.745Z,8.00
2018-12-20T04:16:32.692Z,8.00
2018-12-20T04:19:00.726Z,7.90
2018-12-20T04:21:28.909Z,8.00
2018-12-20T04:23:57.243Z,8.00
2018-12-20T04:26:25.596Z,8.00
2018-12-20T04:28:53.711Z,8.00
2018-12-20T04:31:22.291Z,8.00
2018-12-20T04:33:50.569Z,7.90
2018-12-20T04:36:19.558Z,7.90
2018-12-20T04:38:47.953Z,7.90
2018-12-20T04:41:16.235Z,7.80
2018-12-20T04:43:44.965Z,7.80
2018-12-20T04:46:13.190Z,7.70
2018-12-20T04:48:41.226Z,7.80
2018-12-20T04:51:09.403Z,7.80
2018-12-20T04:53:37.702Z,7.80
2018-12-20T04:56:06.048Z,7.80
2018-12-20T04:58:34.460Z,7.80
2018-12-20T05:01:02.495Z,7.80
2018-12-20T05:03:31.308Z,7.70
2018-12-20T05:05:59.608Z,7.70
2018-12-20T05:08:27.911Z,7.70
2018-12-20T05:10:56.280Z,7.70
2018-12-20T05:13:24.546Z,7.60
2018-12-20T05:15:56.367Z,7.60
2018-12-20T05:18:20.812Z,7.60
2018-12-20T05:20:49.446Z,7.60
2018-12-20T05:23:17.896Z,7.60
2018-12-20T05:25:45.963Z,7.60
2018-12-20T05:28:14.117Z,7.60
2018-12-20T05:30:42.528Z,7.70
2018-12-20T05:33:11.283Z,7.70
2018-12-20T05:35:39.534Z,7.70
2018-12-20T05:38:07.772Z,7.70
2018-12-20T05:40:36.018Z,7.70
2018-12-20T05:43:04.293Z,7.70
2018-12-20T05:45:32.466Z,7.70
2018-12-20T05:48:00.763Z,7.70
2018-12-20T05:50:28.954Z,7.70
2018-12-20T05:52:57.933Z,7.70
2018-12-20T05:55:26.415Z,7.70
2018-12-20T05:57:54.432Z,7.70
2018-12-20T06:00:23.909Z,7.70
2018-12-20T06:02:52.502Z,7.70
2018-12-20T06:05:20.732Z,7.80
2018-12-20T06:07:48.888Z,7.80
2018-12-20T06:10:17.098Z,7.70
2018-12-20T06:12:45.566Z,7.70
2018-12-20T06:15:14.216Z,7.70
2018-12-20T06:17:42.448Z,7.70
2018-12-20T06:20:10.745Z,7.70
2018-12-20T06:22:39.008Z,7.60
2018-12-20T06:25:07.310Z,7.70
2018-12-20T06:27:35.605Z,7.60
2018-12-20T06:30:04.278Z,7.60
2018-12-20T06:33:35.838Z,7.70
2018-12-20T06:36:04.201Z,7.60
2018-12-20T06:38:32.590Z,7.70
2018-12-20T06:41:00.849Z,7.60
2018-12-20T06:43:29.847Z,7.60
2018-12-20T06:45:58.221Z,7.50
2018-12-20T06:48:26.537Z,7.60
2018-12-20T06:50:54.701Z,7.70
2018-12-20T06:53:23.537Z,7.70
2018-12-20T06:55:52.569Z,7.70
2018-12-20T06:58:20.916Z,7.70
2018-12-20T07:00:49.306Z,7.70
2018-12-20T07:03:17.607Z,7.60
2018-12-20T07:05:45.933Z,7.60
2018-12-20T07:08:14.248Z,7.70
2018-12-20T07:10:42.513Z,7.70
2018-12-20T07:13:10.809Z,7.60
2018-12-20T07:15:39.081Z,7.70
2018-12-20T07:18:07.390Z,7.70
2018-12-20T07:20:35.628Z,7.60
2018-12-20T07:23:03.905Z,7.60
2018-12-20T07:25:32.485Z,7.50
2018-12-20T07:28:00.769Z,7.50
2018-12-20T07:30:29.545Z,7.50
2018-12-20T07:32:57.969Z,7.50
2018-12-20T07:35:26.105Z,7.50
2018-12-20T07:37:56.417Z,7.50
2018-12-20T07:40:24.640Z,7.50
2018-12-20T07:42:52.910Z,7.50
2018-12-20T07:45:22.093Z,7.50
2018-12-20T07:47:50.369Z,7.60
2018-12-20T07:50:18.635Z,7.60
2018-12-20T07:52:46.882Z,7.70
2018-12-20T07:55:15.151Z,7.70
2018-12-20T07:57:44.246Z,7.70
2018-12-20T08:00:13.112Z,7.70
2018-12-20T08:02:42.431Z,7.70
2018-12-20T08:05:10.696Z,7.70
2018-12-20T08:07:39.048Z,7.70
2018-12-20T08:10:09.371Z,7.70
2018-12-20T08:12:38.171Z,7.70
2018-12-20T08:15:06.540Z,7.70
2018-12-20T08:17:34.845Z,7.70
2018-12-20T08:20:07.469Z,7.70
2018-12-20T08:22:36.468Z,7.70
2018-12-20T08:25:04.846Z,7.80
2018-12-20T08:27:33.957Z,7.80
2018-12-20T08:30:02.345Z,7.80
2018-12-20T08:32:30.613Z,7.90
2018-12-20T08:34:58.990Z,7.90
2018-12-20T08:37:27.205Z,8.00
2018-12-20T08:39:55.535Z,8.00
2018-12-20T08:42:23.829Z,8.10
2018-12-20T08:44:52.126Z,8.20
2018-12-20T08:47:20.526Z,8.20
2018-12-20T08:49:48.640Z,8.30
2018-12-20T08:52:16.918Z,8.30
2018-12-20T08:54:45.189Z,8.30
2018-12-20T08:57:14.368Z,8.40
2018-12-20T08:59:43.289Z,8.40
2018-12-20T09:02:11.567Z,8.40
2018-12-20T09:04:39.803Z,8.40
2018-12-20T09:07:08.189Z,8.40
2018-12-20T09:09:36.441Z,8.40
2018-12-20T09:12:04.673Z,8.50
2018-12-20T09:14:39.439Z,8.50
2018-12-20T09:17:07.721Z,8.40
2018-12-20T09:19:36.288Z,8.30
2018-12-20T09:22:04.728Z,8.30
2018-12-20T09:24:32.698Z,8.30
2018-12-20T09:27:00.977Z,8.20
2018-12-20T09:29:29.289Z,8.20
2018-12-20T09:31:57.547Z,8.10
2018-12-20T09:34:32.227Z,7.90
2018-12-20T09:37:01.215Z,7.90
2018-12-20T09:39:29.476Z,7.90
2018-12-20T09:41:57.685Z,7.80
2018-12-20T09:44:25.891Z,7.80
2018-12-20T09:46:58.319Z,7.80
2018-12-20T09:49:26.601Z,7.80
2018-12-20T09:51:55.065Z,7.80
2018-12-20T09:54:23.306Z,7.70
2018-12-20T09:56:51.561Z,7.70
2018-12-20T09:59:19.832Z,7.60
2018-12-20T10:01:48.123Z,7.70
2018-12-20T10:04:16.385Z,7.70
2018-12-20T10:06:44.605Z,7.70
2018-12-20T10:09:12.869Z,7.70
2018-12-20T10:11:42.149Z,7.80
2018-12-20T10:14:10.405Z,7.80
2018-12-20T10:16:38.618Z,7.90
2018-12-20T10:19:06.811Z,7.90
2018-12-20T10:21:35.125Z,8.00
2018-12-20T10:24:03.328Z,8.00
2018-12-20T10:26:31.595Z,8.00
2018-12-20T10:28:59.794Z,8.00
2018-12-20T10:31:28.005Z,8.00
2018-12-20T10:33:56.265Z,8.00
2018-12-20T10:36:24.640Z,8.00
2018-12-20T10:38:53.839Z,8.10
2018-12-20T10:41:22.097Z,8.10
2018-12-20T10:43:50.330Z,8.00
2018-12-20T10:46:18.644Z,8.00
2018-12-20T10:48:47.491Z,7.90
2018-12-20T10:51:17.759Z,7.90
2018-12-20T10:53:46.049Z,7.90
2018-12-20T10:56:14.278Z,7.90
2018-12-20T10:58:42.517Z,7.90
2018-12-20T11:01:17.320Z,7.90
2018-12-20T11:03:47.095Z,8.00
2018-12-20T11:06:20.777Z,7.90
2018-12-20T11:08:55.213Z,7.90
2018-12-20T11:11:24.263Z,7.90
2018-12-20T11:13:52.668Z,8.00
2018-12-20T11:16:21.001Z,8.00
2018-12-20T11:18:50.124Z,8.00
2018-12-20T11:21:19.084Z,8.00
2018-12-20T11:23:47.420Z,8.00
2018-12-20T11:26:15.709Z,8.00
2018-12-20T11:28:50.744Z,8.00
2018-12-20T11:31:20.413Z,8.00
2018-12-20T11:33:48.720Z,8.00
2018-12-20T11:36:23.530Z,8.00
2018-12-20T11:38:52.486Z,8.00
2018-12-20T11:41:20.873Z,8.00
2018-12-20T11:43:49.131Z,8.10
2018-12-20T11:46:18.077Z,8.10
2018-12-20T11:48:46.362Z,8.10
2018-12-20T11:51:14.641Z,8.10
2018-12-20T11:53:43.934Z,8.10
2018-12-20T11:56:13.106Z,8.10
2018-12-20T11:58:41.657Z,8.10
2018-12-20T12:01:10.650Z,8.10
2018-12-20T12:03:38.917Z,8.10
2018-12-20T12:06:07.270Z,8.10
2018-12-20T12:08:36.038Z,8.10
2018-12-20T12:11:04.349Z,8.00
2018-12-20T12:13:33.921Z,7.90
2018-12-20T12:16:02.157Z,8.00
2018-12-20T12:18:30.440Z,8.00
2018-12-20T12:20:58.878Z,8.00
2018-12-20T12:23:28.025Z,8.00
2018-12-20T12:25:56.313Z,8.00
2018-12-20T12:28:24.614Z,7.90
2018-12-20T12:30:52.891Z,7.90
2018-12-20T12:33:21.125Z,7.90
2018-12-20T12:35:49.335Z,8.10
2018-12-20T12:38:17.818Z,8.10
2018-12-20T12:40:46.345Z,8.10
2018-12-20T12:43:14.597Z,8.10
2018-12-20T12:45:42.836Z,8.10
2018-12-20T12:48:11.130Z,8.10
2018-12-20T12:50:39.340Z,7.90
2018-12-20T12:53:07.605Z,7.90
2018-12-20T12:55:36.529Z,7.80
2018-12-20T12:58:05.787Z,7.80
2018-12-20T13:00:34.007Z,7.80
2018-12-20T13:03:02.265Z,7.90
2018-12-20T13:05:30.572Z,7.90
2018-12-20T13:07:58.789Z,8.00
2018-12-20T13:10:27.057Z,8.10
2018-12-20T13:12:55.380Z,8.10
2018-12-20T13:15:23.634Z,8.10
2018-12-20T13:17:51.877Z,8.10
2018-12-20T13:20:20.801Z,8.30
2018-12-20T13:22:49.097Z,8.40
2018-12-20T13:25:17.377Z,8.40
2018-12-20T13:27:45.620Z,8.50
2018-12-20T13:30:13.888Z,8.40
2018-12-20T13:32:42.197Z,8.30
2018-12-20T13:35:10.442Z,8.30
2018-12-20T13:37:39.281Z,8.30
2018-12-20T13:40:08.636Z,8.30
2018-12-20T13:42:36.876Z,8.30
2018-12-20T13:45:05.453Z,8.30
2018-12-20T13:47:33.774Z,8.30
2018-12-20T13:50:01.997Z,8.30
2018-12-20T13:52:30.353Z,8.40
2018-12-20T13:54:58.666Z,8.40
2018-12-20T13:57:27.583Z,8.30
2018-12-20T13:59:56.834Z,8.30
2018-12-20T14:02:25.268Z,8.30
2018-12-20T14:04:53.965Z,8.30
2018-12-20T14:07:22.209Z,8.30
2018-12-20T14:09:50.511Z,8.30
2018-12-20T14:12:18.768Z,8.30
2018-12-20T14:14:48.135Z,8.20
2018-12-20T14:17:17.062Z,8.30
2018-12-20T14:19:45.258Z,8.20
2018-12-20T14:22:13.471Z,8.20
2018-12-20T14:24:41.753Z,8.20
2018-12-20T14:27:10.051Z,8.30
2018-12-20T14:29:38.302Z,8.20
2018-12-20T14:32:06.818Z,8.20
2018-12-20T14:34:35.179Z,8.20
2018-12-20T14:37:03.552Z,8.20
2018-12-20T14:39:31.827Z,8.20
2018-12-20T14:42:00.160Z,8.20
2018-12-20T14:44:28.401Z,8.30
2018-12-20T14:46:56.713Z,8.30
2018-12-20T14:49:25.018Z,8.30
2018-12-20T14:51:53.321Z,8.30
2018-12-20T14:54:22.047Z,8.30
2018-12-20T14:56:50.288Z,8.30
2018-12-20T14:59:18.553Z,8.30
2018-12-20T15:01:46.782Z,8.30
2018-12-20T15:04:16.549Z,8.30
2018-12-20T15:06:51.140Z,8.30
2018-12-20T15:09:22.328Z,8.30
2018-12-20T15:11:50.597Z,8.30
2018-12-20T15:14:18.832Z,8.40
2018-12-20T15:16:47.136Z,8.30
2018-12-20T15:19:15.767Z,8.40
2018-12-20T15:21:44.052Z,8.40
2018-12-20T15:24:12.300Z,8.50
2018-12-20T15:26:40.541Z,8.50
2018-12-20T15:29:08.817Z,8.50
2018-12-20T15:31:37.274Z,8.50
2018-12-20T15:34:05.669Z,8.50
2018-12-20T15:36:34.346Z,8.50
2018-12-20T15:39:03.074Z,8.50
2018-12-20T15:41:32.365Z,8.40
2018-12-20T15:44:00.973Z,8.30
2018-12-20T15:46:29.173Z,8.20
2018-12-20T15:49:04.400Z,8.20
2018-12-20T15:51:33.527Z,8.20
2018-12-20T15:54:01.819Z,8.20
2018-12-20T15:56:30.052Z,8.20
2018-12-20T15:58:58.321Z,8.20
2018-12-20T16:01:26.517Z,8.10
2018-12-20T16:03:54.869Z,8.10
2018-12-20T16:06:23.198Z,8.00
2018-12-20T16:08:51.473Z,8.00
2018-12-20T16:11:19.753Z,8.00
2018-12-20T16:13:48.242Z,8.00
2018-12-20T16:16:16.523Z,8.00
2018-12-20T16:18:45.491Z,7.90
2018-12-20T16:21:13.722Z,7.90
2018-12-20T16:23:42.049Z,7.90
2018-12-20T16:26:10.301Z,7.90
2018-12-20T16:28:39.298Z,8.00
2018-12-20T16:31:08.869Z,8.00
2018-12-20T16:33:37.429Z,8.00
2018-12-20T16:36:06.981Z,8.00
2018-12-20T16:38:35.444Z,8.00
2018-12-20T16:41:03.718Z,8.00
2018-12-20T16:43:32.040Z,8.00
2018-12-20T16:46:00.289Z,8.00
2018-12-20T16:48:28.464Z,8.00
2018-12-20T16:50:56.703Z,8.10
2018-12-20T16:53:24.956Z,8.10
2018-12-20T16:55:54.169Z,8.10
2018-12-20T16:58:22.794Z,8.10
2018-12-20T17:00:51.042Z,8.20
2018-12-20T17:03:19.339Z,8.20
2018-12-20T17:05:50.737Z,8.10
2018-12-20T17:08:19.684Z,8.10
2018-12-20T17:10:48.757Z,8.10
2018-12-20T17:13:17.015Z,8.10
2018-12-20T17:15:45.255Z,8.10
2018-12-20T17:18:14.486Z,8.10
2018-12-20T17:20:43.661Z,8.00
2018-12-20T17:23:11.826Z,8.10
2018-12-20T17:25:40.067Z,8.00
2018-12-20T17:28:08.370Z,8.00
2018-12-20T17:30:36.687Z,8.00
2018-12-20T17:33:05.069Z,8.00
2018-12-20T17:35:34.173Z,8.00
2018-12-20T17:38:02.569Z,8.00
2018-12-20T17:40:30.989Z,8.00
2018-12-20T17:42:59.249Z,8.00
2018-12-20T17:45:27.572Z,7.90
2018-12-20T17:47:55.871Z,7.90
2018-12-20T17:50:24.383Z,7.90
2018-12-20T17:52:52.662Z,7.90
2018-12-20T17:55:21.224Z,7.90
2018-12-20T17:57:49.555Z,7.90
2018-12-20T18:00:19.654Z,7.90
2018-12-20T18:02:49.458Z,7.90
2018-12-20T18:05:17.695Z,7.90
2018-12-20T18:07:46.019Z,7.90
2018-12-20T18:10:14.289Z,7.90
2018-12-20T18:12:42.520Z,7.90
2018-12-20T18:15:11.485Z,7.90
2018-12-20T18:17:39.766Z,7.90
2018-12-20T18:20:09.961Z,7.90
2018-12-20T18:22:38.194Z,7.90
2018-12-20T18:25:07.714Z,8.00
2018-12-20T18:27:36.033Z,8.00
2018-12-20T18:30:05.293Z,7.90
2018-12-20T18:32:33.570Z,8.00
2018-12-20T18:35:01.838Z,8.00
2018-12-20T18:37:30.105Z,8.00
2018-12-20T18:39:58.389Z,8.00
2018-12-20T18:42:27.581Z,8.00
2018-12-20T18:44:56.700Z,8.00
2018-12-20T18:47:24.917Z,8.10
2018-12-20T18:49:53.239Z,8.00
2018-12-20T18:52:21.551Z,8.10
2018-12-20T18:54:49.786Z,8.10
2018-12-20T18:57:18.140Z,8.00
2018-12-20T18:59:47.102Z,7.90
2018-12-20T19:02:15.381Z,7.90
2018-12-20T19:04:44.506Z,7.90
2018-12-20T19:07:12.688Z,7.80
2018-12-20T19:09:40.923Z,7.80
2018-12-20T19:12:09.154Z,7.80
2018-12-20T19:14:38.258Z,7.80
2018-12-20T19:17:06.587Z,7.80
2018-12-20T19:19:34.812Z,7.80
2018-12-20T19:22:03.011Z,7.80
2018-12-20T19:24:31.231Z,7.80
2018-12-20T19:26:59.522Z,7.70
2018-12-20T19:29:27.791Z,7.70
2018-12-20T19:31:56.124Z,7.60
2018-12-20T19:34:24.401Z,7.60
2018-12-20T19:36:52.621Z,7.60
2018-12-20T19:39:21.238Z,7.60
2018-12-20T19:41:49.489Z,7.60
2018-12-20T19:44:17.838Z,7.60
2018-12-20T19:46:46.114Z,7.60
2018-12-20T19:49:14.346Z,7.60
2018-12-20T19:51:42.623Z,7.60
2018-12-20T19:54:11.051Z,7.60
2018-12-20T19:56:39.943Z,7.50
2018-12-20T19:59:08.245Z,7.50
2018-12-20T20:01:36.726Z,7.50
2018-12-20T20:04:05.010Z,7.50
2018-12-20T20:06:33.257Z,7.60
2018-12-20T20:09:01.603Z,7.60
2018-12-20T20:11:29.879Z,7.60
2018-12-20T20:13:58.887Z,7.60
2018-12-20T20:16:27.242Z,7.70
2018-12-20T20:18:55.503Z,7.60
2018-12-20T20:21:25.325Z,7.50
2018-12-20T20:23:53.608Z,7.50
2018-12-20T20:26:21.892Z,7.50
2018-12-20T20:28:50.164Z,7.50
2018-12-20T20:31:18.454Z,7.50
2018-12-20T20:33:46.750Z,7.50
2018-12-20T20:36:15.516Z,7.60
2018-12-20T20:38:43.784Z,7.60
2018-12-20T20:41:13.878Z,7.60
2018-12-20T20:43:43.138Z,7.60
2018-12-20T20:46:11.489Z,7.70
2018-12-20T20:48:40.065Z,7.70
2018-12-20T20:51:10.787Z,7.70
2018-12-20T20:53:39.160Z,7.70
2018-12-20T20:56:07.522Z,7.70
2018-12-20T20:58:35.805Z,7.80
2018-12-20T21:01:04.070Z,7.80
2018-12-20T21:03:32.380Z,7.80
2018-12-20T21:06:01.594Z,7.80
2018-12-20T21:08:29.848Z,7.80
2018-12-20T21:10:58.065Z,7.80
2018-12-20T21:13:26.905Z,7.80
2018-12-20T21:15:55.698Z,7.80
2018-12-20T21:18:23.930Z,7.80
2018-12-20T21:20:53.265Z,7.80
2018-12-20T21:23:21.549Z,7.80
2018-12-20T21:25:49.837Z,7.80
2018-12-20T21:28:18.176Z,7.80
2018-12-20T21:30:46.461Z,7.80
2018-12-20T21:33:14.721Z,7.80
2018-12-20T21:35:43.012Z,7.80
2018-12-20T21:38:11.304Z,7.80
2018-12-20T21:40:41.178Z,7.80
2018-12-20T21:43:09.421Z,7.80
2018-12-20T21:45:38.427Z,7.90
2018-12-20T21:48:06.706Z,7.80
2018-12-20T21:50:38.978Z,7.80
2018-12-20T21:53:03.757Z,7.80
2018-12-20T21:55:32.098Z,7.80
2018-12-20T21:58:00.361Z,7.80
2018-12-20T22:00:29.130Z,7.80
2018-12-20T22:02:57.358Z,7.80
2018-12-20T22:05:25.581Z,7.80
2018-12-20T22:07:54.625Z,7.80
2018-12-20T22:10:22.943Z,7.80
2018-12-20T22:12:51.205Z,7.80
2018-12-20T22:15:19.446Z,7.80
2018-12-20T22:17:47.709Z,7.80
2018-12-20T22:20:15.953Z,7.90
2018-12-20T22:22:44.223Z,7.80
2018-12-20T22:25:12.518Z,7.90
2018-12-20T22:27:40.792Z,7.90
2018-12-20T22:30:09.800Z,7.90
2018-12-20T22:32:38.154Z,7.90
2018-12-20T22:35:06.601Z,7.80
2018-12-20T22:37:34.878Z,7.80
2018-12-20T22:40:03.260Z,7.80
2018-12-20T22:42:31.501Z,7.80
2018-12-20T22:44:59.782Z,7.80
2018-12-20T22:47:28.042Z,7.80
2018-12-20T22:49:56.241Z,7.80
2018-12-20T22:52:24.970Z,7.80
2018-12-20T22:54:53.264Z,7.80
2018-12-20T22:57:22.086Z,7.80
2018-12-20T22:59:50.408Z,7.80
2018-12-20T23:02:18.661Z,7.80
2018-12-20T23:04:46.853Z,7.90
2018-12-20T23:07:15.082Z,7.90
2018-12-20T23:09:43.921Z,7.90
2018-12-20T23:12:12.256Z,7.90
2018-12-20T23:14:40.592Z,7.90
2018-12-20T23:17:08.879Z,7.90
2018-12-20T23:19:37.729Z,7.90
2018-12-20T23:22:06.222Z,7.90
2018-12-20T23:24:34.470Z,7.90
2018-12-20T23:27:02.734Z,7.90
2018-12-20T23:29:32.002Z,7.90
2018-12-20T23:32:00.241Z,7.90
2018-12-20T23:34:29.343Z,7.90
2018-12-20T23:36:57.681Z,7.90
2018-12-20T23:39:27.089Z,7.90
2018-12-20T23:41:56.004Z,7.90
2018-12-20T23:44:25.073Z,7.90
2018-12-20T23:46:53.293Z,7.90
2018-12-20T23:49:21.646Z,7.90
2018-12-20T23:51:50.491Z,7.90
2018-12-20T23:54:18.749Z,7.90
2018-12-20T23:56:47.006Z,7.90
2018-12-20T23:59:15.236Z,7.90
